Terminal Aerodrome Forecast
Issued by NWS

Home | Current Version | Previous Version | Text Only | Print | Product List | Glossary On
Versions: 1 2 3 4 5 6 7 8 9 10 11 12 13 14 15 16 17 18 19 20 21 22 23
000
FTUS41 KBTV 022300
TAFMSS
TAF
KMSS 022323Z 0300/0324 27008KT 6SM -RA BR SCT025 OVC050
     FM030200 26006KT P6SM BKN050
     FM030700 25005KT P6SM SCT050
     FM031500 26010G17KT P6SM SCT050=

USA.gov is the U.S. government's official web portal to all federal, state and local government web resources and services.